This is the latest recevied weather packets stored in our database for station/object SV1RVP-13. If no packets are shown the sender has not sent any weather packets the latest 10 day(s).
| Time | Temp. | Humidity | Pressure | Rain* | Wind** | Luminosity | Snow |
|---|---|---|---|---|---|---|---|
| 1778162932 | 23.33° C | 43% | 1017.4 hPa | 0 mm | - | - | - |
| 1778162337 | 23.89° C | 43% | 1017.2 hPa | 0 mm | - | - | - |
| 1778161374 | 23.89° C | 42% | 1017.3 hPa | 0 mm | - | - | - |
| 1778160584 | 24.44° C | 40% | 1017 hPa | 0 mm | - | - | - |
| 1778159937 | 24.44° C | 43% | 1017 hPa | 0 mm | - | - | - |
| 1778159317 | 23.89° C | 44% | 1017.1 hPa | 0 mm | - | - | - |
| 1778158711 | 23.89° C | 47% | 1017.2 hPa | 0 mm | - | - | - |
| 1778158129 | 23.89° C | 47% | 1017.4 hPa | 0 mm | - | - | - |
| 1778157521 | 23.89° C | 49% | 1017.5 hPa | 0 mm | - | - | - |
| 1778156921 | 23.89° C | 49% | 1017.7 hPa | 0 mm | - | - | - |
| 1778156320 | 23.89° C | 53% | 1017.8 hPa | 0 mm | - | - | - |
| 1778155731 | 23.89° C | 50% | 1017.8 hPa | 0 mm | - | - | - |
| 1778155118 | 24.44° C | 48% | 1017.8 hPa | 0 mm | - | - | - |
| 1778154523 | 24.44° C | 51% | 1017.6 hPa | 0 mm | - | - | - |
| 1778153927 | 23.89° C | 56% | 1017.9 hPa | 0 mm | - | - | - |
| 1778153315 | 22.78° C | 62% | 1018 hPa | 0 mm | - | - | - |
| 1778152712 | 23.33° C | 63% | 1018 hPa | 0 mm | - | - | - |
| 1778152132 | 22.78° C | 62% | 1018.2 hPa | 0 mm | - | - | - |
| 1778151517 | 23.33° C | 60% | 1018 hPa | 0 mm | - | - | - |
| 1778150917 | 23.89° C | 58% | 1017.9 hPa | 0 mm | - | - | - |
| 1778150319 | 24.44° C | 57% | 1017.9 hPa | 0 mm | - | - | - |
| 1778149707 | 24.44° C | 58% | 1017.5 hPa | 0 mm | - | - | - |
| 1778149110 | 23.89° C | 63% | 1017.4 hPa | 0 mm | - | - | - |
| 1778148524 | 23.33° C | 66% | 1017.6 hPa | 0 mm | - | - | - |
| 1778147906 | 22.22° C | 71% | 1017.6 hPa | 0 mm | - | - | - |
* Rain since midnight (hover to see other rain measurements)
** Current wind speed in m/s (hover to see current wind gust speed)